MED411 MDPC-MDSD
Flight info
| Callsign | MED411 |
|---|---|
| Flight time | 0h 36m |
| Altitude | 13500 |
| Route | PNA W6 PIVAR DCT GABIM DCT EMULU |
| Aircraft | BE9L/L-SBDFGRY/SB1 |
Departure
| Time | 2026-05-08 20:48 |
|---|---|
| Airport | Punta Cana International Airport (MDPC) |
Arrival
| Time | 2026-05-08 21:25 |
|---|---|
| Airport | Las Américas International Airport (MDSD) |
| Time | Latitude | Longitude | Altitude | Speed | Heading |
|---|---|---|---|---|---|
| 2026-05-08 20:34 | 18.56396 | -68.37498 | 48 ft | 0 kts | 177° |
| 2026-05-08 20:44 | 18.56388 | -68.37498 | 48 ft | 5 kts | 176° |
| 2026-05-08 20:44 | 18.56359 | -68.37525 | 49 ft | 9 kts | 264° |
| 2026-05-08 20:44 | 18.56357 | -68.37561 | 49 ft | 0 kts | 266° |
| 2026-05-08 20:44 | 18.56357 | -68.37563 | 49 ft | 2 kts | 266° |
| 2026-05-08 20:45 | 18.56355 | -68.37592 | 49 ft | 6 kts | 272° |
| 2026-05-08 20:45 | 18.56386 | -68.37628 | 49 ft | 2 kts | 354° |
| 2026-05-08 20:45 | 18.56387 | -68.37628 | 49 ft | 0 kts | 355° |
| 2026-05-08 20:45 | 18.56400 | -68.37627 | 49 ft | 7 kts | 8° |
| 2026-05-08 20:46 | 18.56449 | -68.37644 | 49 ft | 10 kts | 299° |
| 2026-05-08 20:46 | 18.56456 | -68.37743 | 47 ft | 13 kts | 298° |
| 2026-05-08 20:46 | 18.56519 | -68.37775 | 47 ft | 0 kts | 356° |
| 2026-05-08 20:47 | 18.56547 | -68.37776 | 47 ft | 9 kts | 356° |
| 2026-05-08 20:47 | 18.56628 | -68.37745 | 46 ft | 18 kts | 83° |
| 2026-05-08 20:47 | 18.56634 | -68.37503 | 46 ft | 62 kts | 86° |
| 2026-05-08 20:48 | 18.56688 | -68.36871 | 41 ft | 105 kts | 86° |
| 2026-05-08 20:48 | 18.56738 | -68.36062 | 150 ft | 115 kts | 86° |
| 2026-05-08 20:48 | 18.56751 | -68.35201 | 356 ft | 122 kts | 94° |
| 2026-05-08 20:48 | 18.56692 | -68.34318 | 670 ft | 117 kts | 91° |
| 2026-05-08 20:49 | 18.56658 | -68.33437 | 901 ft | 120 kts | 94° |
| 2026-05-08 20:49 | 18.56512 | -68.32579 | 1200 ft | 121 kts | 109° |
| 2026-05-08 20:49 | 18.56219 | -68.31794 | 1613 ft | 113 kts | 121° |
| 2026-05-08 20:49 | 18.55512 | -68.31412 | 1763 ft | 128 kts | 180° |
| 2026-05-08 20:50 | 18.54745 | -68.31866 | 1947 ft | 134 kts | 231° |
| 2026-05-08 20:50 | 18.54121 | -68.32719 | 1990 ft | 153 kts | 230° |
| 2026-05-08 20:50 | 18.53385 | -68.33562 | 2143 ft | 159 kts | 225° |
| 2026-05-08 20:50 | 18.52619 | -68.34405 | 2378 ft | 159 kts | 231° |
| 2026-05-08 20:51 | 18.52069 | -68.35435 | 2467 ft | 167 kts | 248° |
| 2026-05-08 20:51 | 18.51657 | -68.36561 | 2781 ft | 159 kts | 248° |
| 2026-05-08 20:51 | 18.51183 | -68.37585 | 3071 ft | 155 kts | 240° |
| 2026-05-08 20:51 | 18.50594 | -68.38536 | 3272 ft | 157 kts | 236° |
| 2026-05-08 20:52 | 18.49990 | -68.39489 | 3483 ft | 157 kts | 236° |
| 2026-05-08 20:52 | 18.49369 | -68.40453 | 3695 ft | 158 kts | 233° |
| 2026-05-08 20:52 | 18.48994 | -68.41514 | 3894 ft | 158 kts | 263° |
| 2026-05-08 20:52 | 18.48842 | -68.42667 | 4095 ft | 159 kts | 262° |
| 2026-05-08 20:53 | 18.48690 | -68.43827 | 4293 ft | 159 kts | 262° |
| 2026-05-08 20:53 | 18.48540 | -68.44980 | 4486 ft | 160 kts | 262° |
| 2026-05-08 20:53 | 18.48389 | -68.46143 | 4676 ft | 160 kts | 262° |
| 2026-05-08 20:53 | 18.48238 | -68.47304 | 4862 ft | 161 kts | 262° |
| 2026-05-08 20:54 | 18.48087 | -68.48467 | 5043 ft | 161 kts | 262° |
| 2026-05-08 20:54 | 18.47935 | -68.49640 | 5222 ft | 161 kts | 262° |
| 2026-05-08 20:54 | 18.47783 | -68.50807 | 5396 ft | 162 kts | 262° |
| 2026-05-08 20:54 | 18.47627 | -68.51988 | 5568 ft | 162 kts | 262° |
| 2026-05-08 20:55 | 18.47468 | -68.53169 | 5737 ft | 163 kts | 262° |
| 2026-05-08 20:55 | 18.47304 | -68.54353 | 5902 ft | 163 kts | 262° |
| 2026-05-08 20:55 | 18.47136 | -68.55538 | 6063 ft | 164 kts | 262° |
| 2026-05-08 20:55 | 18.46965 | -68.56718 | 6220 ft | 164 kts | 261° |
| 2026-05-08 20:56 | 18.46788 | -68.57917 | 6376 ft | 164 kts | 261° |
| 2026-05-08 20:56 | 18.46639 | -68.59106 | 6521 ft | 165 kts | 272° |
| 2026-05-08 20:56 | 18.46704 | -68.60310 | 6673 ft | 165 kts | 274° |
| 2026-05-08 20:56 | 18.46769 | -68.61519 | 6818 ft | 165 kts | 273° |
| 2026-05-08 20:57 | 18.46835 | -68.62734 | 6961 ft | 166 kts | 273° |
| 2026-05-08 20:57 | 18.46901 | -68.63948 | 7102 ft | 166 kts | 273° |
| 2026-05-08 20:57 | 18.46967 | -68.65154 | 7237 ft | 166 kts | 273° |
| 2026-05-08 20:57 | 18.47033 | -68.66381 | 7372 ft | 167 kts | 273° |
| 2026-05-08 20:58 | 18.47100 | -68.67602 | 7504 ft | 167 kts | 273° |
| 2026-05-08 20:58 | 18.47167 | -68.68832 | 7633 ft | 167 kts | 273° |
| 2026-05-08 20:58 | 18.47234 | -68.70058 | 7759 ft | 168 kts | 273° |
| 2026-05-08 20:58 | 18.47301 | -68.71281 | 7882 ft | 168 kts | 273° |
| 2026-05-08 20:59 | 18.47368 | -68.72507 | 8003 ft | 168 kts | 273° |
| 2026-05-08 20:59 | 18.47436 | -68.73754 | 8122 ft | 169 kts | 273° |
| 2026-05-08 20:59 | 18.47504 | -68.74990 | 8238 ft | 169 kts | 273° |
| 2026-05-08 20:59 | 18.47572 | -68.76221 | 8351 ft | 169 kts | 273° |
| 2026-05-08 21:00 | 18.47640 | -68.77463 | 8463 ft | 170 kts | 273° |
| 2026-05-08 21:00 | 18.47708 | -68.78693 | 8571 ft | 170 kts | 273° |
| 2026-05-08 21:00 | 18.47777 | -68.79940 | 8678 ft | 170 kts | 273° |
| 2026-05-08 21:00 | 18.47846 | -68.81184 | 8782 ft | 170 kts | 273° |
| 2026-05-08 21:01 | 18.47916 | -68.82436 | 8885 ft | 171 kts | 273° |
| 2026-05-08 21:01 | 18.47985 | -68.83685 | 8985 ft | 171 kts | 273° |
| 2026-05-08 21:01 | 18.48054 | -68.84929 | 9083 ft | 171 kts | 273° |
| 2026-05-08 21:01 | 18.48125 | -68.86195 | 9180 ft | 171 kts | 273° |
| 2026-05-08 21:02 | 18.48195 | -68.87446 | 9273 ft | 172 kts | 273° |
| 2026-05-08 21:02 | 18.48265 | -68.88699 | 9365 ft | 172 kts | 273° |
| 2026-05-08 21:02 | 18.48336 | -68.89967 | 9456 ft | 172 kts | 273° |
| 2026-05-08 21:02 | 18.48407 | -68.91230 | 9545 ft | 172 kts | 273° |
| 2026-05-08 21:03 | 18.48478 | -68.92499 | 9631 ft | 173 kts | 273° |
| 2026-05-08 21:03 | 18.48550 | -68.93759 | 9716 ft | 173 kts | 273° |
| 2026-05-08 21:03 | 18.48622 | -68.95037 | 9800 ft | 173 kts | 273° |
| 2026-05-08 21:03 | 18.48693 | -68.96304 | 9881 ft | 173 kts | 273° |
| 2026-05-08 21:04 | 18.48765 | -68.97570 | 9961 ft | 173 kts | 273° |
| 2026-05-08 21:04 | 18.48837 | -68.98838 | 10039 ft | 174 kts | 273° |
| 2026-05-08 21:04 | 18.48909 | -69.00113 | 10115 ft | 174 kts | 273° |
| 2026-05-08 21:04 | 18.48982 | -69.01391 | 10190 ft | 174 kts | 273° |
| 2026-05-08 21:05 | 18.49054 | -69.02662 | 10264 ft | 174 kts | 273° |
| 2026-05-08 21:05 | 18.49127 | -69.03944 | 10336 ft | 174 kts | 273° |
| 2026-05-08 21:05 | 18.49200 | -69.05225 | 10407 ft | 175 kts | 273° |
| 2026-05-08 21:05 | 18.49274 | -69.06511 | 10476 ft | 175 kts | 273° |
| 2026-05-08 21:06 | 18.49347 | -69.07783 | 10543 ft | 175 kts | 273° |
| 2026-05-08 21:06 | 18.49422 | -69.09078 | 10610 ft | 175 kts | 273° |
| 2026-05-08 21:06 | 18.49337 | -69.10353 | 10671 ft | 175 kts | 257° |
| 2026-05-08 21:06 | 18.49077 | -69.11597 | 10734 ft | 176 kts | 257° |
| 2026-05-08 21:07 | 18.48813 | -69.12856 | 10796 ft | 176 kts | 257° |
| 2026-05-08 21:07 | 18.48549 | -69.14106 | 10857 ft | 176 kts | 257° |
| 2026-05-08 21:07 | 18.48283 | -69.15372 | 10917 ft | 176 kts | 257° |
| 2026-05-08 21:07 | 18.48017 | -69.16635 | 10968 ft | 177 kts | 257° |
| 2026-05-08 21:08 | 18.47749 | -69.17911 | 10961 ft | 180 kts | 257° |
| 2026-05-08 21:08 | 18.47473 | -69.19224 | 10961 ft | 182 kts | 257° |
| 2026-05-08 21:08 | 18.47199 | -69.20532 | 10960 ft | 184 kts | 257° |
| 2026-05-08 21:08 | 18.46920 | -69.21860 | 10960 ft | 185 kts | 257° |
| 2026-05-08 21:09 | 18.46645 | -69.23174 | 10892 ft | 190 kts | 257° |
| 2026-05-08 21:09 | 18.46348 | -69.24590 | 10525 ft | 202 kts | 258° |
| 2026-05-08 21:09 | 18.46468 | -69.26074 | 10151 ft | 208 kts | 288° |
| 2026-05-08 21:09 | 18.46814 | -69.27560 | 9778 ft | 211 kts | 283° |
| 2026-05-08 21:10 | 18.47160 | -69.29077 | 9404 ft | 214 kts | 283° |
| 2026-05-08 21:10 | 18.47506 | -69.30585 | 9032 ft | 212 kts | 283° |
| 2026-05-08 21:10 | 18.47849 | -69.32085 | 8653 ft | 207 kts | 284° |
| 2026-05-08 21:10 | 18.48223 | -69.33535 | 8267 ft | 203 kts | 294° |
| 2026-05-08 21:11 | 18.48805 | -69.34866 | 7899 ft | 200 kts | 295° |
| 2026-05-08 21:11 | 18.49375 | -69.36177 | 7526 ft | 198 kts | 295° |
| 2026-05-08 21:11 | 18.49945 | -69.37490 | 7149 ft | 196 kts | 295° |
| 2026-05-08 21:11 | 18.50513 | -69.38799 | 6787 ft | 194 kts | 295° |
| 2026-05-08 21:12 | 18.51064 | -69.40068 | 6463 ft | 191 kts | 295° |
| 2026-05-08 21:12 | 18.51747 | -69.41259 | 6136 ft | 189 kts | 302° |
| 2026-05-08 21:12 | 18.52449 | -69.42416 | 5811 ft | 187 kts | 303° |
| 2026-05-08 21:12 | 18.53149 | -69.43568 | 5485 ft | 186 kts | 303° |
| 2026-05-08 21:13 | 18.53842 | -69.44710 | 5219 ft | 182 kts | 303° |
| 2026-05-08 21:13 | 18.54506 | -69.45804 | 5107 ft | 172 kts | 303° |
| 2026-05-08 21:13 | 18.55143 | -69.46854 | 4980 ft | 167 kts | 303° |
| 2026-05-08 21:13 | 18.55759 | -69.47868 | 4905 ft | 160 kts | 303° |
| 2026-05-08 21:14 | 18.56348 | -69.48839 | 4896 ft | 151 kts | 303° |
| 2026-05-08 21:14 | 18.56908 | -69.49733 | 4891 ft | 143 kts | 311° |
| 2026-05-08 21:14 | 18.57631 | -69.50425 | 4897 ft | 136 kts | 319° |
| 2026-05-08 21:14 | 18.58325 | -69.51070 | 4896 ft | 131 kts | 319° |
| 2026-05-08 21:15 | 18.59005 | -69.51701 | 4832 ft | 132 kts | 319° |
| 2026-05-08 21:15 | 18.59701 | -69.52349 | 4698 ft | 137 kts | 319° |
| 2026-05-08 21:15 | 18.60399 | -69.53058 | 4549 ft | 142 kts | 303° |
| 2026-05-08 21:15 | 18.60871 | -69.53986 | 4384 ft | 148 kts | 297° |
| 2026-05-08 21:16 | 18.61377 | -69.55005 | 4016 ft | 164 kts | 298° |
| 2026-05-08 21:16 | 18.61922 | -69.56103 | 3651 ft | 175 kts | 298° |
| 2026-05-08 21:16 | 18.62497 | -69.57259 | 3343 ft | 178 kts | 298° |
| 2026-05-08 21:16 | 18.63063 | -69.58400 | 3280 ft | 168 kts | 298° |
| 2026-05-08 21:17 | 18.63585 | -69.59449 | 3270 ft | 157 kts | 298° |
| 2026-05-08 21:17 | 18.63974 | -69.60484 | 3271 ft | 148 kts | 284° |
| 2026-05-08 21:17 | 18.64230 | -69.61508 | 3270 ft | 141 kts | 285° |
| 2026-05-08 21:17 | 18.64476 | -69.62499 | 3271 ft | 135 kts | 285° |
| 2026-05-08 21:18 | 18.64703 | -69.63451 | 3269 ft | 131 kts | 279° |
| 2026-05-08 21:18 | 18.64499 | -69.64342 | 3272 ft | 125 kts | 233° |
| 2026-05-08 21:18 | 18.63934 | -69.65012 | 3273 ft | 122 kts | 227° |
| 2026-05-08 21:18 | 18.63364 | -69.65673 | 3272 ft | 119 kts | 227° |
| 2026-05-08 21:19 | 18.62809 | -69.66316 | 3277 ft | 122 kts | 227° |
| 2026-05-08 21:19 | 18.62213 | -69.67006 | 3287 ft | 130 kts | 227° |
| 2026-05-08 21:19 | 18.61591 | -69.67727 | 3243 ft | 138 kts | 227° |
| 2026-05-08 21:19 | 18.60929 | -69.68494 | 3152 ft | 146 kts | 227° |
| 2026-05-08 21:20 | 18.60236 | -69.69297 | 3080 ft | 149 kts | 227° |
| 2026-05-08 21:20 | 18.59533 | -69.70113 | 3017 ft | 151 kts | 227° |
| 2026-05-08 21:20 | 18.58716 | -69.70793 | 2938 ft | 153 kts | 199° |
| 2026-05-08 21:20 | 18.57685 | -69.70997 | 2920 ft | 150 kts | 185° |
| 2026-05-08 21:21 | 18.56648 | -69.71024 | 2868 ft | 145 kts | 179° |
| 2026-05-08 21:21 | 18.55668 | -69.71018 | 2668 ft | 138 kts | 180° |
| 2026-05-08 21:21 | 18.54759 | -69.70967 | 2580 ft | 121 kts | 172° |
| 2026-05-08 21:21 | 18.53958 | -69.70785 | 2387 ft | 118 kts | 164° |
| 2026-05-08 21:22 | 18.53166 | -69.70551 | 2178 ft | 117 kts | 163° |
| 2026-05-08 21:22 | 18.52393 | -69.70312 | 1989 ft | 115 kts | 163° |
| 2026-05-08 21:22 | 18.51636 | -69.70077 | 1833 ft | 113 kts | 163° |
| 2026-05-08 21:22 | 18.50849 | -69.69808 | 1624 ft | 125 kts | 162° |
| 2026-05-08 21:23 | 18.50013 | -69.69531 | 1447 ft | 128 kts | 162° |
| 2026-05-08 21:23 | 18.49180 | -69.69239 | 1289 ft | 123 kts | 162° |
| 2026-05-08 21:23 | 18.48359 | -69.68961 | 1088 ft | 124 kts | 162° |
| 2026-05-08 21:23 | 18.47543 | -69.68671 | 879 ft | 123 kts | 161° |
| 2026-05-08 21:24 | 18.46756 | -69.68369 | 695 ft | 119 kts | 159° |
| 2026-05-08 21:24 | 18.45991 | -69.68066 | 535 ft | 116 kts | 159° |
| 2026-05-08 21:24 | 18.45265 | -69.67760 | 336 ft | 111 kts | 158° |
| 2026-05-08 21:24 | 18.44562 | -69.67481 | 153 ft | 107 kts | 160° |
| 2026-05-08 21:25 | 18.43870 | -69.67224 | 59 ft | 98 kts | 161° |
| 2026-05-08 21:25 | 18.43391 | -69.67049 | 58 ft | 52 kts | 160° |
| 2026-05-08 21:25 | 18.43090 | -69.66936 | 61 ft | 41 kts | 161° |
| 2026-05-08 21:25 | 18.42927 | -69.66920 | 62 ft | 9 kts | 248° |
| 2026-05-08 21:26 | 18.42935 | -69.67023 | 59 ft | 2 kts | 279° |
| 2026-05-08 21:26 | 18.42935 | -69.67024 | 59 ft | 0 kts | 279° |